Archival Weather

Chicago O'Hare International

Chicago, Illinois (KORD)

Report from: Wednesday, February 16, 2022 1:51 PM CST
Current time: Saturday, February 4, 2023 11:27 PM CST

Current weather
Weather history
Weather forecast

Temperature10.6°C (51.1°F)
Dew point6.1°C (43.0°F)
Winds 16 kts (8.2 m/s, 18.4 mph) South-Southwest (210°)
Wind gusts 27 kts (13.9 m/s, 31.1 mph)
Peak wind 36 kts (18.5 m/s, 41.4 mph) South-Southwest (200°) at 12:54
Visibility10 mi. (16.1 km)
Clouds Ceiling: Broken clouds 3,600 ft. (1,097 m)
Overcast 4,700 ft. (1,433 m)
Altimeter29.76 in.Hg (1008 mB)
Relative humidity74 %
Density altitude-203 ft. (-62 m)
Sea-level pressure100.8 kPa (1008 mB, 29.76 in.Hg)
Remarks Automated weather observing station with precipitation discriminator
Flight conditions Visual Meteorological Conditions
Raw dataKORD 161951Z 21016G27KT 10SM BKN036 OVC047 11/06 A2976 RMK AO2 PK WND 20036/1854 SLP078 T01060061
An unhandled exception has occurred. See browser dev tools for details. Reload 🗙